Terminal Aerodrome Forecast
Issued by NWS

Home | Current Version | Previous Version | Text Only | Print | Product List | Glossary On
Versions: 1 2 3 4 5 6 7 8 9 10 11 12 13 14 15 16
000
FTPA31 PHFO 252325
TAFMDY
TAF
PMDY 252325Z 2600/2624 07014KT P6SM BKN018
     FM260100 07013KT P6SM SCT018 SCT025
     FM261200 06015KT P6SM VCSH SCT012 BKN025
     FM261800 05017KT P6SM SCT018 BKN030=

USA.gov is the U.S. government's official web portal to all federal, state and local government web resources and services.